createdAt,value
2018-09-23T00:01:39.995Z,13.30
2018-09-23T00:04:08.489Z,13.10
2018-09-23T00:06:36.995Z,13.00
2018-09-23T00:09:07.285Z,12.90
2018-09-23T00:11:35.765Z,12.90
2018-09-23T00:14:04.316Z,12.90
2018-09-23T00:16:33.173Z,12.80
2018-09-23T00:19:01.652Z,12.90
2018-09-23T00:21:30.126Z,12.90
2018-09-23T00:23:58.645Z,12.80
2018-09-23T00:26:27.146Z,12.80
2018-09-23T00:28:55.633Z,12.80
2018-09-23T00:31:24.166Z,12.80
2018-09-23T00:33:52.643Z,12.80
2018-09-23T00:36:21.158Z,12.80
2018-09-23T00:38:51.709Z,12.80
2018-09-23T00:41:20.218Z,12.90
2018-09-23T00:43:48.711Z,12.90
2018-09-23T00:46:17.431Z,12.80
2018-09-23T00:48:46.050Z,12.80
2018-09-23T00:57:25.513Z,12.70
2018-09-23T00:59:54.909Z,12.70
2018-09-23T01:02:23.589Z,12.80
2018-09-23T01:04:52.774Z,12.80
2018-09-23T01:07:21.235Z,12.90
2018-09-23T01:09:49.750Z,12.80
2018-09-23T01:12:19.361Z,12.80
2018-09-23T01:14:47.825Z,12.80
2018-09-23T01:17:17.339Z,12.90
2018-09-23T01:19:47.101Z,12.90
2018-09-23T01:27:08.913Z,13.00
2018-09-23T01:29:37.484Z,13.00
2018-09-23T01:32:06.040Z,13.00
2018-09-23T01:34:34.594Z,13.00
2018-09-23T01:37:03.087Z,13.10
2018-09-23T01:39:31.552Z,13.10
2018-09-23T01:42:00.372Z,13.20
2018-09-23T01:44:28.839Z,13.20
2018-09-23T01:46:57.322Z,13.00
2018-09-23T01:49:25.958Z,13.10
2018-09-23T01:51:54.946Z,13.00
2018-09-23T01:54:23.426Z,12.90
2018-09-23T01:56:51.945Z,13.00
2018-09-23T01:59:20.426Z,13.00
2018-09-23T02:01:49.774Z,13.10
2018-09-23T02:04:18.436Z,13.10
2018-09-23T02:06:46.901Z,13.10
2018-09-23T02:14:09.098Z,13.10
2018-09-23T02:16:37.616Z,12.90
2018-09-23T02:19:06.479Z,12.90
2018-09-23T02:21:36.197Z,12.90
2018-09-23T02:24:04.730Z,13.00
2018-09-23T02:26:33.203Z,13.10
2018-09-23T02:29:01.730Z,13.20
2018-09-23T02:31:30.209Z,13.20
2018-09-23T02:33:58.701Z,13.10
2018-09-23T02:36:27.207Z,13.00
2018-09-23T02:38:55.718Z,13.00
2018-09-23T02:41:24.203Z,12.90
2018-09-23T02:43:53.365Z,12.80
2018-09-23T02:46:21.850Z,12.80
2018-09-23T02:48:50.341Z,12.80
2018-09-23T02:51:18.895Z,12.70
2018-09-23T02:53:47.397Z,12.80
2018-09-23T02:57:24.629Z,12.70
2018-09-23T02:59:53.166Z,12.60
2018-09-23T03:02:22.447Z,12.70
2018-09-23T03:04:51.167Z,12.70
2018-09-23T03:07:19.675Z,12.80
2018-09-23T03:09:48.201Z,12.90
2018-09-23T03:12:17.401Z,13.00
2018-09-23T03:14:45.892Z,13.00
2018-09-23T03:22:09.705Z,13.10
2018-09-23T03:24:38.887Z,13.10
2018-09-23T03:27:07.372Z,13.00
2018-09-23T03:29:35.881Z,13.00
2018-09-23T03:32:04.386Z,13.10
2018-09-23T03:34:32.859Z,12.90
2018-09-23T03:37:01.387Z,12.90
2018-09-23T03:39:29.851Z,13.00
2018-09-23T03:41:58.351Z,13.10
2018-09-23T03:44:26.861Z,13.10
2018-09-23T03:46:55.348Z,13.20
2018-09-23T03:49:23.865Z,13.20
2018-09-23T03:51:52.363Z,13.20
2018-09-23T03:54:23.250Z,13.30
2018-09-23T03:56:52.937Z,13.20
2018-09-23T03:59:22.051Z,13.30
2018-09-23T04:01:50.532Z,13.40
2018-09-23T04:04:19.597Z,13.40
2018-09-23T04:06:48.714Z,13.40
2018-09-23T04:09:17.386Z,13.30
2018-09-23T04:11:45.861Z,13.30
2018-09-23T04:19:14.574Z,13.20
2018-09-23T04:21:43.177Z,13.10
2018-09-23T04:24:11.702Z,13.00
2018-09-23T04:26:40.857Z,13.10
2018-09-23T04:29:09.333Z,13.00
2018-09-23T04:31:37.986Z,13.00
2018-09-23T04:34:06.498Z,12.90
2018-09-23T04:36:34.998Z,12.90
2018-09-23T04:39:04.614Z,12.80
2018-09-23T04:41:33.130Z,12.80
2018-09-23T04:44:01.597Z,12.80
2018-09-23T04:46:30.091Z,12.80
2018-09-23T04:48:59.094Z,12.80
2018-09-23T04:51:27.956Z,12.80
2018-09-23T04:53:56.451Z,12.80
2018-09-23T04:56:24.979Z,12.80
2018-09-23T04:58:53.465Z,12.80
2018-09-23T05:01:21.957Z,12.80
2018-09-23T05:03:50.483Z,12.80
2018-09-23T05:06:19.917Z,12.80
2018-09-23T05:08:48.404Z,12.80
2018-09-23T05:11:18.014Z,12.80
2018-09-23T05:13:46.566Z,12.80
2018-09-23T05:21:12.369Z,12.80
2018-09-23T05:23:40.879Z,12.70
2018-09-23T05:26:09.380Z,12.60
2018-09-23T05:28:38.487Z,12.60
2018-09-23T05:31:07.079Z,12.60
2018-09-23T05:33:35.563Z,12.60
2018-09-23T05:36:04.239Z,12.60
2018-09-23T05:38:32.770Z,12.70
2018-09-23T05:41:01.458Z,12.80
2018-09-23T05:43:30.426Z,12.80
2018-09-23T05:45:58.989Z,12.80
2018-09-23T05:48:27.507Z,12.70
2018-09-23T05:50:56.116Z,12.80
2018-09-23T05:53:24.742Z,12.80
2018-09-23T05:55:53.247Z,12.90
2018-09-23T05:58:21.775Z,12.90
2018-09-23T06:00:52.583Z,12.90
2018-09-23T06:03:21.403Z,13.00
2018-09-23T06:05:49.973Z,13.00
2018-09-23T06:08:19.424Z,13.00
2018-09-23T06:10:47.961Z,13.10
2018-09-23T06:13:17.825Z,13.00
2018-09-23T06:15:46.372Z,13.00
2018-09-23T06:23:13.478Z,13.10
2018-09-23T06:25:41.990Z,13.10
2018-09-23T06:28:10.559Z,13.20
2018-09-23T06:30:39.346Z,13.20
2018-09-23T06:33:07.905Z,13.30
2018-09-23T06:35:37.001Z,13.30
2018-09-23T06:38:05.669Z,13.50
2018-09-23T06:40:34.667Z,13.60
2018-09-23T06:43:03.190Z,13.70
2018-09-23T06:45:32.485Z,13.70
2018-09-23T06:48:01.183Z,13.80
2018-09-23T06:50:29.875Z,13.80
2018-09-23T06:52:59.271Z,13.90
2018-09-23T06:55:27.902Z,13.90
2018-09-23T06:57:56.483Z,14.00
2018-09-23T07:00:26.634Z,14.00
2018-09-23T07:02:55.743Z,14.00
2018-09-23T07:05:24.903Z,14.20
2018-09-23T07:07:54.054Z,14.20
2018-09-23T07:10:24.877Z,14.20
2018-09-23T07:12:54.191Z,14.30
2018-09-23T07:15:23.551Z,14.20
2018-09-23T07:17:53.746Z,14.30
2018-09-23T07:20:22.312Z,14.40
2018-09-23T07:22:50.915Z,14.40
2018-09-23T07:25:19.478Z,14.40
2018-09-23T07:27:48.119Z,14.50
2018-09-23T07:30:18.474Z,14.50
2018-09-23T07:32:47.022Z,14.50
2018-09-23T07:40:13.342Z,14.60
2018-09-23T07:42:42.036Z,14.80
2018-09-23T07:45:12.335Z,14.90
2018-09-23T07:47:41.612Z,15.00
2018-09-23T07:50:10.863Z,15.00
2018-09-23T07:52:40.157Z,15.10
2018-09-23T07:55:09.967Z,15.10
2018-09-23T07:57:39.462Z,15.20
2018-09-23T08:00:08.594Z,15.40
2018-09-23T08:02:38.242Z,15.50
2018-09-23T08:05:07.622Z,15.60
2018-09-23T08:07:36.855Z,15.80
2018-09-23T08:10:06.428Z,16.00
2018-09-23T08:12:37.212Z,16.30
2018-09-23T08:15:06.560Z,17.00
2018-09-23T08:17:35.527Z,17.40
2018-09-23T08:20:05.510Z,17.50
2018-09-23T08:22:34.789Z,17.50
2018-09-23T08:25:04.455Z,17.60
2018-09-23T08:27:33.459Z,17.80
2018-09-23T08:30:02.479Z,17.90
2018-09-23T08:32:31.307Z,18.40
2018-09-23T08:35:00.021Z,18.90
2018-09-23T08:37:28.605Z,19.60
2018-09-23T08:39:57.209Z,20.00
2018-09-23T08:42:25.711Z,21.90
2018-09-23T08:44:54.224Z,24.20
2018-09-23T08:47:22.850Z,24.60
2018-09-23T08:49:51.349Z,25.20
2018-09-23T08:52:19.938Z,25.30
2018-09-23T08:54:48.466Z,24.90
2018-09-23T08:57:17.489Z,23.60
2018-09-23T08:59:45.958Z,23.20
2018-09-23T09:07:11.555Z,22.70
2018-09-23T09:09:40.107Z,21.50
2018-09-23T09:12:08.714Z,21.30
2018-09-23T09:14:38.363Z,20.90
2018-09-23T09:17:06.858Z,20.60
2018-09-23T09:19:36.710Z,20.40
2018-09-23T09:22:05.246Z,20.40
2018-09-23T09:24:34.542Z,20.30
2018-09-23T09:27:03.045Z,20.30
2018-09-23T09:29:32.703Z,20.10
2018-09-23T09:32:01.972Z,19.80
2018-09-23T09:34:30.937Z,19.70
2018-09-23T09:37:00.248Z,19.80
2018-09-23T09:39:29.725Z,19.70
2018-09-23T09:41:59.162Z,19.80
2018-09-23T09:44:28.323Z,19.90
2018-09-23T09:46:57.526Z,20.10
2018-09-23T09:49:26.751Z,20.30
2018-09-23T09:51:55.919Z,20.40
2018-09-23T09:54:25.657Z,20.70
2018-09-23T09:56:54.511Z,20.80
2018-09-23T09:59:24.556Z,21.00
2018-09-23T10:01:53.584Z,21.10
2018-09-23T10:04:22.888Z,21.40
2018-09-23T10:06:52.298Z,21.70
2018-09-23T10:09:22.361Z,21.50
2018-09-23T10:11:50.853Z,21.70
2018-09-23T10:14:19.692Z,22.00
2018-09-23T10:16:49.306Z,22.10
2018-09-23T10:19:17.785Z,22.30
2018-09-23T10:21:46.601Z,22.40
2018-09-23T10:29:12.320Z,23.30
2018-09-23T10:31:40.819Z,23.50
2018-09-23T10:34:09.314Z,23.30
2018-09-23T10:36:39.141Z,23.20
2018-09-23T10:39:09.007Z,23.20
2018-09-23T10:41:37.521Z,23.20
2018-09-23T10:44:06.431Z,23.50
2018-09-23T10:46:35.491Z,23.60
2018-09-23T10:49:04.138Z,23.40
2018-09-23T10:51:32.671Z,23.60
2018-09-23T10:54:01.550Z,23.60
2018-09-23T10:56:30.799Z,23.50
2018-09-23T10:59:00.430Z,23.50
2018-09-23T11:01:28.903Z,23.30
2018-09-23T11:03:57.939Z,23.30
2018-09-23T11:06:26.542Z,23.30
2018-09-23T11:08:55.526Z,23.10
2018-09-23T11:11:24.072Z,22.90
2018-09-23T11:13:52.892Z,22.90
2018-09-23T11:16:21.466Z,23.10
2018-09-23T11:18:50.918Z,23.00
2018-09-23T11:21:19.854Z,22.90
2018-09-23T11:23:48.391Z,22.90
2018-09-23T11:26:18.602Z,23.20
2018-09-23T11:28:47.121Z,23.30
2018-09-23T11:36:11.175Z,22.40
2018-09-23T11:38:39.665Z,22.00
2018-09-23T11:41:08.177Z,22.10
2018-09-23T11:43:36.733Z,22.20
2018-09-23T11:46:05.403Z,22.20
2018-09-23T11:48:33.914Z,22.30
2018-09-23T11:51:02.489Z,22.40
2018-09-23T11:53:31.050Z,22.50
2018-09-23T11:55:59.689Z,22.70
2018-09-23T11:58:28.250Z,22.80
2018-09-23T12:00:58.226Z,22.90
2018-09-23T12:03:26.750Z,23.10
2018-09-23T12:05:55.557Z,23.10
2018-09-23T12:08:24.167Z,23.20
2018-09-23T12:10:52.885Z,23.30
2018-09-23T12:13:21.526Z,23.50
2018-09-23T12:15:50.167Z,23.60
2018-09-23T12:18:18.688Z,23.60
2018-09-23T12:20:48.714Z,23.70
2018-09-23T12:23:17.343Z,23.80
2018-09-23T12:25:46.076Z,23.90
2018-09-23T12:33:13.504Z,24.10
2018-09-23T12:35:43.314Z,24.30
2018-09-23T12:38:11.822Z,24.40
2018-09-23T12:40:40.961Z,24.40
2018-09-23T12:43:09.482Z,24.40
2018-09-23T12:45:37.988Z,24.50
2018-09-23T12:48:06.631Z,24.50
2018-09-23T12:50:35.178Z,24.60
2018-09-23T12:53:04.596Z,24.80
2018-09-23T12:55:33.174Z,25.00
2018-09-23T12:58:01.658Z,25.00
2018-09-23T13:00:30.234Z,25.00
2018-09-23T13:03:00.203Z,24.90
2018-09-23T13:05:29.224Z,24.90
2018-09-23T13:07:57.870Z,24.90
2018-09-23T13:10:26.383Z,25.00
2018-09-23T13:12:54.849Z,25.00
2018-09-23T13:15:23.331Z,25.20
2018-09-23T13:17:52.541Z,25.20
2018-09-23T13:20:21.146Z,25.20
2018-09-23T13:22:50.710Z,25.30
2018-09-23T13:25:19.286Z,25.20
2018-09-23T13:27:47.752Z,25.10
2018-09-23T13:30:17.625Z,25.20
2018-09-23T13:32:46.170Z,25.30
2018-09-23T13:40:11.711Z,25.30
2018-09-23T13:42:40.255Z,25.30
2018-09-23T13:45:09.170Z,25.40
2018-09-23T13:47:37.762Z,25.40
2018-09-23T13:50:06.550Z,25.40
2018-09-23T13:52:35.365Z,25.40
2018-09-23T13:55:03.926Z,25.30
2018-09-23T13:57:32.503Z,25.20
2018-09-23T14:00:01.563Z,25.40
2018-09-23T14:02:30.496Z,25.40
2018-09-23T14:04:59.051Z,25.30
2018-09-23T14:07:27.600Z,25.30
2018-09-23T14:09:56.223Z,25.30
2018-09-23T14:12:24.762Z,25.20
2018-09-23T14:14:53.342Z,25.30
2018-09-23T14:17:22.580Z,25.40
2018-09-23T14:19:51.153Z,25.50
2018-09-23T14:22:19.694Z,25.60
2018-09-23T14:24:49.242Z,25.60
2018-09-23T14:27:17.777Z,25.50
2018-09-23T14:29:46.276Z,25.20
2018-09-23T14:37:13.037Z,25.00
2018-09-23T14:39:41.602Z,25.00
2018-09-23T14:42:10.179Z,24.90
2018-09-23T14:44:39.339Z,24.90
2018-09-23T14:47:07.910Z,25.00
2018-09-23T14:49:36.495Z,25.00
2018-09-23T14:52:05.022Z,24.80
2018-09-23T14:54:33.631Z,24.80
2018-09-23T14:57:02.143Z,24.70
2018-09-23T14:59:30.799Z,24.70
2018-09-23T15:01:59.437Z,24.70
2018-09-23T15:04:27.971Z,24.60
2018-09-23T15:06:56.593Z,24.60
2018-09-23T15:09:25.210Z,24.80
2018-09-23T15:11:53.764Z,24.90
2018-09-23T15:14:22.444Z,24.70
2018-09-23T15:16:51.346Z,24.70
2018-09-23T15:19:20.076Z,24.70
2018-09-23T15:21:48.720Z,24.60
2018-09-23T15:24:17.854Z,24.50
2018-09-23T15:26:47.407Z,24.50
2018-09-23T15:29:17.587Z,24.50
2018-09-23T15:31:46.345Z,24.60
2018-09-23T15:39:13.661Z,25.00
2018-09-23T15:41:42.322Z,25.10
2018-09-23T15:44:10.948Z,25.10
2018-09-23T15:46:39.935Z,25.00
2018-09-23T15:49:08.506Z,25.10
2018-09-23T15:51:37.123Z,25.20
2018-09-23T15:54:05.822Z,25.20
2018-09-23T15:56:34.395Z,25.10
2018-09-23T15:59:02.953Z,25.20
2018-09-23T16:01:31.531Z,25.20
2018-09-23T16:04:00.085Z,25.20
2018-09-23T16:06:28.582Z,25.20
2018-09-23T16:08:57.158Z,25.10
2018-09-23T16:11:25.654Z,25.00
2018-09-23T16:13:54.305Z,25.00
2018-09-23T16:16:22.818Z,24.90
2018-09-23T16:18:51.422Z,24.80
2018-09-23T16:21:19.799Z,24.80
2018-09-23T16:23:48.449Z,24.60
2018-09-23T16:26:17.430Z,24.60
2018-09-23T16:28:47.292Z,24.50
2018-09-23T16:31:17.526Z,24.40
2018-09-23T16:33:46.181Z,24.30
2018-09-23T16:41:09.112Z,24.30
2018-09-23T16:43:37.600Z,24.10
2018-09-23T16:46:06.133Z,24.10
2018-09-23T16:48:35.441Z,24.10
2018-09-23T16:51:04.207Z,24.00
2018-09-23T16:53:32.779Z,23.90
2018-09-23T16:56:01.278Z,23.80
2018-09-23T16:58:29.738Z,23.80
2018-09-23T17:00:59.195Z,23.80
2018-09-23T17:03:27.730Z,23.70
2018-09-23T17:05:56.305Z,23.70
2018-09-23T17:08:24.762Z,23.60
2018-09-23T17:10:53.329Z,23.60
2018-09-23T17:13:21.805Z,23.50
2018-09-23T17:15:50.382Z,23.40
2018-09-23T17:18:18.962Z,23.40
2018-09-23T17:20:47.485Z,23.30
2018-09-23T17:23:17.350Z,23.30
2018-09-23T17:25:45.904Z,23.30
2018-09-23T17:33:11.665Z,23.30
2018-09-23T17:35:40.168Z,23.30
2018-09-23T17:38:08.654Z,23.20
2018-09-23T17:40:37.271Z,23.30
2018-09-23T17:43:06.096Z,23.30
2018-09-23T17:45:34.591Z,23.30
2018-09-23T17:48:03.837Z,23.30
2018-09-23T17:50:32.358Z,23.30
2018-09-23T17:53:00.868Z,23.30
2018-09-23T17:55:29.562Z,23.20
2018-09-23T17:57:58.733Z,23.30
2018-09-23T18:00:28.175Z,23.30
2018-09-23T18:02:57.540Z,23.20
2018-09-23T18:05:26.321Z,23.20
2018-09-23T18:07:55.209Z,23.10
2018-09-23T18:10:24.312Z,23.10
2018-09-23T18:12:53.113Z,23.10
2018-09-23T18:15:22.354Z,23.10
2018-09-23T18:17:51.759Z,23.20
2018-09-23T18:20:20.984Z,23.20
2018-09-23T18:22:49.992Z,23.20
2018-09-23T18:25:18.525Z,23.20
2018-09-23T18:27:47.647Z,23.20
2018-09-23T18:30:17.368Z,23.20
2018-09-23T18:32:46.898Z,23.20
2018-09-23T18:40:15.098Z,22.70
2018-09-23T18:42:43.583Z,22.20
2018-09-23T18:45:12.857Z,22.00
2018-09-23T18:47:41.357Z,21.90
2018-09-23T18:50:09.926Z,21.80
2018-09-23T18:52:38.621Z,21.70
2018-09-23T18:55:12.540Z,21.80
2018-09-23T18:57:41.019Z,21.80
2018-09-23T19:00:09.526Z,21.50
2018-09-23T19:02:38.066Z,20.80
2018-09-23T19:05:06.993Z,20.20
2018-09-23T19:07:35.515Z,19.50
2018-09-23T19:10:04.120Z,18.80
2018-09-23T19:12:32.630Z,18.10
2018-09-23T19:15:01.234Z,17.80
2018-09-23T19:17:30.074Z,17.60
2018-09-23T19:20:04.057Z,17.30
2018-09-23T19:22:38.299Z,17.00
2018-09-23T19:25:06.887Z,16.70
2018-09-23T19:27:35.583Z,16.70
2018-09-23T19:30:04.267Z,16.70
2018-09-23T19:32:33.012Z,16.60
2018-09-23T19:35:01.613Z,16.60
2018-09-23T19:37:34.595Z,16.50
2018-09-23T19:40:03.270Z,16.50
2018-09-23T19:42:32.235Z,16.40
2018-09-23T19:45:01.631Z,16.20
2018-09-23T19:47:30.415Z,16.20
2018-09-23T19:49:58.947Z,16.10
2018-09-23T19:52:27.628Z,15.90
2018-09-23T19:54:56.232Z,15.80
2018-09-23T19:57:24.945Z,15.80
2018-09-23T19:59:53.786Z,15.80
2018-09-23T20:02:22.275Z,15.70
2018-09-23T20:04:51.388Z,15.60
2018-09-23T20:07:20.239Z,15.50
2018-09-23T20:09:48.775Z,15.50
2018-09-23T20:12:17.607Z,15.40
2018-09-23T20:14:46.707Z,15.40
2018-09-23T20:22:16.170Z,15.40
2018-09-23T20:24:44.798Z,15.20
2018-09-23T20:27:13.338Z,15.10
2018-09-23T20:29:41.932Z,15.10
2018-09-23T20:32:10.466Z,15.20
2018-09-23T20:34:39.007Z,15.20
2018-09-23T20:37:07.615Z,15.20
2018-09-23T20:39:37.085Z,15.20
2018-09-23T20:42:05.701Z,15.20
2018-09-23T20:44:34.307Z,15.10
2018-09-23T20:47:02.998Z,15.00
2018-09-23T20:49:33.910Z,15.00
2018-09-23T20:52:03.082Z,14.90
2018-09-23T20:54:31.716Z,14.80
2018-09-23T20:57:00.282Z,14.60
2018-09-23T20:59:28.778Z,14.50
2018-09-23T21:01:57.305Z,14.60
2018-09-23T21:04:26.440Z,14.60
2018-09-23T21:06:54.962Z,14.50
2018-09-23T21:09:23.474Z,14.40
2018-09-23T21:11:51.966Z,14.40
2018-09-23T21:14:20.813Z,14.30
2018-09-23T21:16:49.283Z,14.30
2018-09-23T21:19:17.806Z,14.30
2018-09-23T21:21:46.314Z,14.30
2018-09-23T21:29:13.062Z,14.30
2018-09-23T21:31:41.634Z,14.20
2018-09-23T21:34:10.187Z,14.20
2018-09-23T21:36:39.205Z,14.10
2018-09-23T21:39:09.614Z,14.00
2018-09-23T21:41:38.723Z,14.10
2018-09-23T21:44:07.762Z,13.90
2018-09-23T21:46:36.259Z,13.90
2018-09-23T21:49:04.790Z,13.80
2018-09-23T21:51:33.302Z,13.60
2018-09-23T21:54:01.794Z,13.70
2018-09-23T21:56:30.294Z,13.70
2018-09-23T21:58:59.277Z,13.60
2018-09-23T22:01:27.762Z,13.60
2018-09-23T22:03:56.248Z,13.60
2018-09-23T22:06:24.764Z,13.50
2018-09-23T22:08:53.256Z,13.50
2018-09-23T22:11:21.783Z,13.60
2018-09-23T22:13:50.429Z,13.50
2018-09-23T22:16:18.941Z,13.60
2018-09-23T22:18:47.445Z,13.60
2018-09-23T22:26:09.172Z,13.40
2018-09-23T22:28:37.701Z,13.50
2018-09-23T22:31:06.305Z,13.40
2018-09-23T22:33:34.841Z,13.40
2018-09-23T22:36:03.436Z,13.40
2018-09-23T22:38:31.932Z,13.50
2018-09-23T22:41:00.438Z,13.40
2018-09-23T22:43:29.387Z,13.40
2018-09-23T22:45:57.901Z,13.30
2018-09-23T22:48:26.782Z,13.30
2018-09-23T22:50:55.640Z,13.20
2018-09-23T22:53:24.107Z,13.10
2018-09-23T22:55:52.983Z,12.90
2018-09-23T22:58:21.486Z,12.80
2018-09-23T23:00:50.158Z,12.80
2018-09-23T23:03:18.696Z,12.80
2018-09-23T23:05:47.182Z,12.70
2018-09-23T23:13:11.690Z,12.60
2018-09-23T23:15:40.172Z,12.50
2018-09-23T23:18:08.690Z,12.70
2018-09-23T23:20:37.416Z,12.60
2018-09-23T23:23:06.106Z,12.60
2018-09-23T23:25:35.179Z,12.50
2018-09-23T23:28:03.804Z,12.50
2018-09-23T23:30:32.351Z,12.50
2018-09-23T23:33:00.867Z,12.50
2018-09-23T23:35:29.858Z,12.30
2018-09-23T23:37:58.389Z,12.20
2018-09-23T23:40:26.918Z,12.20
2018-09-23T23:42:55.483Z,12.10
2018-09-23T23:45:24.891Z,12.00
2018-09-23T23:47:53.592Z,12.00
2018-09-23T23:50:22.240Z,12.00
2018-09-23T23:52:50.780Z,12.00
2018-09-23T23:55:19.505Z,11.90
2018-09-23T23:57:48.358Z,11.80
